createdAt,value
2023-08-12T00:02:22.993Z,2.92
2023-08-12T00:05:25.669Z,2.97
2023-08-12T00:08:27.911Z,3.13
2023-08-12T00:11:29.904Z,2.47
2023-08-12T00:14:31.914Z,2.67
2023-08-12T00:17:34.072Z,3.30
2023-08-12T00:20:36.171Z,2.30
2023-08-12T00:23:44.355Z,2.40
2023-08-12T00:26:46.428Z,2.30
2023-08-12T00:29:48.411Z,2.25
2023-08-12T00:32:50.530Z,2.35
2023-08-12T00:35:52.730Z,2.30
2023-08-12T00:38:54.815Z,2.47
2023-08-12T00:41:56.936Z,2.55
2023-08-12T00:44:59.495Z,2.40
2023-08-12T00:48:01.540Z,2.28
2023-08-12T00:51:04.491Z,2.38
2023-08-12T00:54:07.932Z,2.63
2023-08-12T00:57:12.348Z,2.60
2023-08-12T01:00:15.571Z,2.90
2023-08-12T01:03:17.549Z,3.83
2023-08-12T01:06:19.670Z,5.05
2023-08-12T01:09:23.973Z,4.40
2023-08-12T01:12:33.164Z,4.90
2023-08-12T01:15:36.337Z,5.35
2023-08-12T01:18:40.983Z,4.72
2023-08-12T01:21:45.354Z,4.83
2023-08-12T01:24:47.443Z,4.25
2023-08-12T01:27:49.434Z,4.55
2023-08-12T01:31:00.405Z,4.13
2023-08-12T01:34:35.861Z,4.68
2023-08-12T01:37:39.127Z,4.23
2023-08-12T01:40:42.489Z,4.13
2023-08-12T01:43:44.840Z,4.38
2023-08-12T01:46:46.845Z,4.40
2023-08-12T01:49:48.887Z,4.72
2023-08-12T01:52:51.209Z,4.83
2023-08-12T01:55:53.909Z,4.65
2023-08-12T01:58:56.053Z,3.80
2023-08-12T02:01:58.149Z,4.40
2023-08-12T02:05:02.694Z,3.70
2023-08-12T02:08:08.408Z,4.20
2023-08-12T02:11:10.935Z,4.00
2023-08-12T02:14:13.368Z,4.28
2023-08-12T02:17:15.596Z,3.40
2023-08-12T02:20:17.972Z,3.90
2023-08-12T02:23:20.006Z,3.60
2023-08-12T02:26:22.040Z,3.38
2023-08-12T02:29:23.979Z,4.07
2023-08-12T02:32:26.108Z,3.83
2023-08-12T02:35:28.111Z,4.03
2023-08-12T02:38:30.095Z,3.78
2023-08-12T02:41:32.490Z,3.60
2023-08-12T02:44:34.516Z,4.05
2023-08-12T02:47:36.627Z,3.75
2023-08-12T02:50:39.573Z,3.10
2023-08-12T02:53:41.556Z,3.95
2023-08-12T02:56:43.610Z,4.20
2023-08-12T02:59:45.597Z,4.53
2023-08-12T03:02:47.963Z,5.40
2023-08-12T03:05:50.862Z,4.35
2023-08-12T03:08:52.890Z,4.35
2023-08-12T03:11:55.290Z,4.07
2023-08-12T03:14:58.719Z,4.97
2023-08-12T03:18:01.362Z,4.30
2023-08-12T03:21:07.919Z,4.22
2023-08-12T03:24:10.016Z,4.22
2023-08-12T03:27:13.650Z,4.18
2023-08-12T03:30:16.171Z,3.90
2023-08-12T03:33:20.469Z,3.97
2023-08-12T03:36:22.546Z,4.30
2023-08-12T03:39:25.000Z,3.90
2023-08-12T03:42:27.842Z,3.90
2023-08-12T03:45:29.982Z,4.00
2023-08-12T03:48:33.003Z,4.10
2023-08-12T03:51:35.794Z,4.53
2023-08-12T03:54:37.860Z,4.07
2023-08-12T03:57:39.906Z,4.50
2023-08-12T04:00:43.928Z,4.13
2023-08-12T04:03:47.115Z,4.50
2023-08-12T04:06:52.365Z,4.38
2023-08-12T04:09:54.557Z,3.92
2023-08-12T04:12:56.600Z,3.27
2023-08-12T04:15:58.634Z,4.03
2023-08-12T04:19:01.269Z,3.40
2023-08-12T04:22:03.415Z,3.20
2023-08-12T04:25:06.406Z,3.65
2023-08-12T04:28:08.793Z,3.30
2023-08-12T04:31:10.886Z,3.42
2023-08-12T04:34:16.224Z,3.55
2023-08-12T04:37:18.390Z,3.22
2023-08-12T04:40:20.499Z,2.80
2023-08-12T04:43:22.829Z,3.40
2023-08-12T04:46:25.136Z,3.28
2023-08-12T04:49:28.321Z,3.17
2023-08-12T04:52:30.354Z,3.28
2023-08-12T04:55:33.122Z,3.45
2023-08-12T04:58:36.532Z,3.67
2023-08-12T05:01:42.995Z,3.03
2023-08-12T05:04:53.374Z,3.28
2023-08-12T05:07:57.087Z,3.15
2023-08-12T05:10:59.208Z,3.13
2023-08-12T05:14:01.345Z,3.80
2023-08-12T05:17:03.571Z,2.80
2023-08-12T05:20:07.364Z,3.10
2023-08-12T05:23:09.962Z,2.60
2023-08-12T05:26:12.036Z,2.67
2023-08-12T05:29:14.092Z,2.57
2023-08-12T05:32:16.107Z,2.42
2023-08-12T05:35:18.141Z,3.08
2023-08-12T05:38:20.196Z,2.70
2023-08-12T05:41:22.220Z,3.05
2023-08-12T05:44:24.275Z,2.97
2023-08-12T05:47:26.356Z,3.05
2023-08-12T05:50:28.424Z,2.53
2023-08-12T05:53:30.383Z,2.60
2023-08-12T05:56:32.414Z,2.92
2023-08-12T05:59:34.506Z,2.63
2023-08-12T06:02:36.561Z,2.30
2023-08-12T06:05:38.690Z,2.75
2023-08-12T06:08:40.942Z,2.60
2023-08-12T06:11:43.224Z,2.58
2023-08-12T06:14:45.271Z,2.33
2023-08-12T06:17:47.474Z,3.10
2023-08-12T06:20:49.554Z,2.45
2023-08-12T06:23:51.733Z,2.75
2023-08-12T06:26:53.765Z,2.58
2023-08-12T06:29:55.889Z,2.67
2023-08-12T06:32:57.900Z,2.37
2023-08-12T06:36:00.059Z,2.70
2023-08-12T06:39:02.112Z,2.45
2023-08-12T06:42:04.586Z,2.60
2023-08-12T06:45:07.286Z,2.60
2023-08-12T06:48:09.337Z,2.40
2023-08-12T06:51:11.701Z,2.50
2023-08-12T06:54:13.758Z,2.50
2023-08-12T06:57:15.707Z,2.38
2023-08-12T07:00:17.711Z,2.90
2023-08-12T07:03:20.046Z,2.47
2023-08-12T07:06:22.228Z,2.45
2023-08-12T07:09:24.166Z,2.40
2023-08-12T07:12:26.210Z,2.55
2023-08-12T07:15:28.181Z,2.37
2023-08-12T07:18:30.583Z,2.30
2023-08-12T07:21:32.702Z,2.78
2023-08-12T07:24:34.767Z,2.63
2023-08-12T07:27:36.815Z,2.90
2023-08-12T07:30:38.914Z,2.47
2023-08-12T07:33:40.984Z,2.40
2023-08-12T07:36:43.074Z,2.53
2023-08-12T07:39:45.110Z,2.20
2023-08-12T07:42:47.150Z,2.20
2023-08-12T07:46:07.722Z,2.10
2023-08-12T07:49:12.469Z,2.20
2023-08-12T07:52:14.714Z,2.22
2023-08-12T07:55:17.438Z,2.70
2023-08-12T07:58:19.773Z,2.15
2023-08-12T08:01:21.689Z,1.90
2023-08-12T08:04:23.737Z,2.33
2023-08-12T08:07:25.998Z,2.10
2023-08-12T08:10:27.942Z,2.05
2023-08-12T08:13:30.001Z,1.77
2023-08-12T08:16:32.370Z,2.03
2023-08-12T08:19:34.750Z,1.87
2023-08-12T08:22:36.797Z,2.00
2023-08-12T08:25:38.881Z,1.95
2023-08-12T08:28:40.927Z,2.28
2023-08-12T08:31:43.188Z,2.10
2023-08-12T08:34:45.180Z,2.40
2023-08-12T08:37:47.305Z,2.10
2023-08-12T08:40:52.966Z,2.10
2023-08-12T08:43:59.493Z,2.00
2023-08-12T08:47:02.442Z,1.93
2023-08-12T08:50:05.128Z,2.33
2023-08-12T08:53:07.960Z,2.20
2023-08-12T08:56:15.941Z,1.88
2023-08-12T08:59:18.379Z,2.60
2023-08-12T09:02:21.023Z,1.97
2023-08-12T09:05:23.759Z,2.30
2023-08-12T09:08:27.627Z,2.15
2023-08-12T09:11:31.162Z,1.90
2023-08-12T09:14:33.589Z,2.30
2023-08-12T09:17:35.677Z,1.80
2023-08-12T09:20:37.870Z,2.17
2023-08-12T09:23:41.060Z,1.98
2023-08-12T09:26:43.969Z,1.95
2023-08-12T09:29:46.025Z,2.15
2023-08-12T09:33:05.487Z,2.00
2023-08-12T09:36:07.706Z,1.90
2023-08-12T09:39:10.280Z,1.80
2023-08-12T09:42:13.433Z,1.90
2023-08-12T09:45:15.686Z,2.03
2023-08-12T09:48:18.316Z,2.07
2023-08-12T09:51:23.462Z,2.00
2023-08-12T09:54:28.944Z,2.03
2023-08-12T09:57:34.598Z,1.90
2023-08-12T10:00:36.928Z,2.35
2023-08-12T10:03:39.574Z,1.83
2023-08-12T10:06:42.271Z,1.90
2023-08-12T10:09:44.781Z,2.03
2023-08-12T10:12:47.875Z,2.13
2023-08-12T10:15:51.759Z,2.10
2023-08-12T10:18:53.985Z,2.03
2023-08-12T10:22:00.555Z,1.80
2023-08-12T10:25:04.697Z,2.03
2023-08-12T10:28:06.857Z,2.03
2023-08-12T10:31:09.212Z,2.05
2023-08-12T10:34:22.955Z,1.80
2023-08-12T10:37:26.499Z,2.10
2023-08-12T10:40:29.069Z,1.70
2023-08-12T10:43:50.540Z,1.80
2023-08-12T10:46:54.317Z,1.80
2023-08-12T10:49:58.037Z,2.20
2023-08-12T10:53:00.113Z,1.97
2023-08-12T10:56:04.411Z,1.90
2023-08-12T10:59:06.531Z,1.92
2023-08-12T11:02:14.513Z,1.95
2023-08-12T11:05:17.004Z,2.00
2023-08-12T11:08:19.685Z,1.80
2023-08-12T11:11:23.649Z,1.67
2023-08-12T11:14:25.643Z,1.90
2023-08-12T11:17:38.961Z,1.70
2023-08-12T11:20:41.822Z,1.83
2023-08-12T11:23:44.147Z,2.10
2023-08-12T11:26:47.692Z,2.08
2023-08-12T11:29:52.762Z,2.05
2023-08-12T11:32:56.109Z,2.28
2023-08-12T11:35:58.287Z,2.00
2023-08-12T11:39:00.376Z,1.90
2023-08-12T11:42:02.454Z,2.20
2023-08-12T11:45:05.735Z,2.30
2023-08-12T11:48:07.800Z,2.10
2023-08-12T11:51:10.055Z,1.90
2023-08-12T11:54:12.088Z,2.10
2023-08-12T11:57:14.416Z,2.10
2023-08-12T12:00:17.134Z,2.10
2023-08-12T12:03:19.173Z,2.25
2023-08-12T12:06:37.760Z,2.10
2023-08-12T12:09:44.642Z,1.97
2023-08-12T12:12:47.011Z,2.30
2023-08-12T12:15:49.165Z,2.05
2023-08-12T12:18:58.811Z,2.15
2023-08-12T12:22:04.543Z,2.00
2023-08-12T12:25:09.539Z,1.90
2023-08-12T12:28:11.689Z,2.00
2023-08-12T12:31:13.744Z,1.70
2023-08-12T12:34:16.014Z,2.00
2023-08-12T12:37:18.019Z,1.93
2023-08-12T12:40:20.312Z,2.10
2023-08-12T12:43:22.416Z,1.90
2023-08-12T12:46:24.916Z,2.08
2023-08-12T12:49:27.346Z,2.08
2023-08-12T12:52:29.627Z,2.23
2023-08-12T12:55:31.747Z,2.10
2023-08-12T12:58:34.695Z,2.10
2023-08-12T13:01:36.818Z,1.80
2023-08-12T13:04:38.864Z,2.10
2023-08-12T13:07:40.925Z,2.33
2023-08-12T13:10:43.208Z,2.03
2023-08-12T13:13:45.325Z,1.83
2023-08-12T13:16:47.383Z,1.95
2023-08-12T13:19:49.488Z,1.92
2023-08-12T13:22:51.519Z,2.10
2023-08-12T13:25:53.847Z,1.70
2023-08-12T13:28:55.984Z,1.77
2023-08-12T13:31:58.049Z,1.90
2023-08-12T13:35:00.099Z,2.03
2023-08-12T13:38:02.253Z,1.93
2023-08-12T13:41:04.465Z,2.10
2023-08-12T13:44:06.657Z,1.98
2023-08-12T13:47:08.750Z,1.92
2023-08-12T13:50:11.125Z,2.17
2023-08-12T13:53:13.898Z,2.00
2023-08-12T13:56:17.300Z,2.00
2023-08-12T13:59:19.301Z,1.90
2023-08-12T14:02:21.675Z,2.00
2023-08-12T14:05:23.826Z,1.90
2023-08-12T14:08:25.945Z,1.90
2023-08-12T14:11:27.896Z,1.87
2023-08-12T14:14:31.376Z,2.20
2023-08-12T14:17:33.567Z,1.85
2023-08-12T14:20:35.680Z,2.00
2023-08-12T14:23:37.920Z,1.93
2023-08-12T14:26:40.242Z,2.03
2023-08-12T14:29:43.354Z,2.10
2023-08-12T14:32:45.423Z,1.98
2023-08-12T14:35:47.437Z,2.20
2023-08-12T14:38:51.616Z,2.23
2023-08-12T14:41:53.625Z,2.10
2023-08-12T14:44:55.777Z,2.15
2023-08-12T14:47:57.848Z,1.85
2023-08-12T14:50:59.960Z,1.85
2023-08-12T14:54:02.379Z,1.80
2023-08-12T14:57:04.415Z,1.67
2023-08-12T15:00:08.187Z,1.77
2023-08-12T15:03:12.599Z,1.80
2023-08-12T15:06:14.981Z,1.83
2023-08-12T15:09:16.996Z,2.10
2023-08-12T15:12:19.192Z,2.00
2023-08-12T15:15:21.345Z,2.20
2023-08-12T15:18:24.154Z,1.90
2023-08-12T15:21:26.264Z,2.00
2023-08-12T15:24:28.562Z,2.23
2023-08-12T15:27:31.519Z,2.00
2023-08-12T15:30:34.755Z,1.70
2023-08-12T15:33:36.702Z,2.25
2023-08-12T15:36:39.648Z,2.20
2023-08-12T15:39:42.302Z,1.90
2023-08-12T15:42:47.358Z,2.07
2023-08-12T15:45:49.538Z,2.28
2023-08-12T15:48:51.674Z,2.05
2023-08-12T15:51:53.656Z,1.98
2023-08-12T15:54:55.630Z,2.00
2023-08-12T15:57:57.665Z,2.27
2023-08-12T16:01:00.675Z,1.98
2023-08-12T16:04:04.149Z,1.83
2023-08-12T16:07:06.117Z,2.17
2023-08-12T16:10:08.420Z,1.80
2023-08-12T16:13:10.532Z,2.00
2023-08-12T16:16:12.624Z,2.10
2023-08-12T16:19:14.930Z,1.80
2023-08-12T16:22:17.110Z,2.13
2023-08-12T16:25:19.393Z,1.97
2023-08-12T16:28:21.488Z,2.10
2023-08-12T16:31:24.601Z,1.77
2023-08-12T16:34:26.778Z,1.83
2023-08-12T16:37:28.808Z,1.70
2023-08-12T16:40:30.916Z,2.00
2023-08-12T16:43:33.032Z,1.87
2023-08-12T16:46:35.148Z,1.95
2023-08-12T16:49:37.253Z,1.83
2023-08-12T16:52:39.319Z,2.17
2023-08-12T16:55:41.368Z,2.80
2023-08-12T16:58:43.348Z,2.00
2023-08-12T17:01:48.763Z,1.80
2023-08-12T17:04:51.114Z,1.75
2023-08-12T17:07:53.332Z,1.90
2023-08-12T17:10:55.522Z,2.13
2023-08-12T17:13:58.231Z,2.20
2023-08-12T17:17:00.529Z,1.73
2023-08-12T17:20:02.634Z,1.90
2023-08-12T17:23:04.992Z,2.10
2023-08-12T17:26:07.202Z,2.00
2023-08-12T17:29:09.361Z,2.07
2023-08-12T17:32:11.822Z,1.70
2023-08-12T17:35:14.200Z,1.85
2023-08-12T17:38:16.506Z,2.10
2023-08-12T17:41:18.673Z,2.07
2023-08-12T17:44:20.673Z,1.83
2023-08-12T17:47:22.681Z,2.10
2023-08-12T17:50:25.946Z,2.13
2023-08-12T17:53:28.020Z,1.95
2023-08-12T17:56:30.147Z,2.10
2023-08-12T17:59:32.278Z,1.90
2023-08-12T18:02:34.446Z,2.28
2023-08-12T18:05:36.539Z,2.20
2023-08-12T18:08:38.600Z,2.30
2023-08-12T18:11:40.581Z,2.33
2023-08-12T18:14:42.584Z,2.80
2023-08-12T18:17:44.769Z,2.60
2023-08-12T18:20:46.831Z,2.50
2023-08-12T18:23:51.433Z,2.53
2023-08-12T18:26:53.496Z,2.60
2023-08-12T18:29:57.549Z,2.50
2023-08-12T18:32:59.691Z,2.47
2023-08-12T18:36:01.848Z,2.70
2023-08-12T18:39:03.993Z,2.22
2023-08-12T18:42:06.291Z,2.40
2023-08-12T18:45:08.662Z,2.20
2023-08-12T18:48:10.725Z,2.38
2023-08-12T18:51:12.811Z,2.70
2023-08-12T18:54:14.961Z,2.28
2023-08-12T18:57:17.076Z,2.33
2023-08-12T19:00:21.278Z,2.80
2023-08-12T19:03:23.403Z,2.33
2023-08-12T19:06:25.527Z,2.40
2023-08-12T19:09:27.963Z,2.60
2023-08-12T19:12:29.986Z,3.30
2023-08-12T19:15:32.063Z,3.33
2023-08-12T19:18:34.408Z,5.25
2023-08-12T19:21:36.423Z,3.78
2023-08-12T19:24:38.613Z,3.63
2023-08-12T19:27:40.684Z,4.07
2023-08-12T19:30:42.911Z,4.03
2023-08-12T19:33:44.924Z,4.40
2023-08-12T19:36:46.922Z,4.25
2023-08-12T19:39:48.974Z,3.97
2023-08-12T19:42:51.194Z,4.33
2023-08-12T19:45:53.250Z,4.07
2023-08-12T19:48:55.498Z,3.90
2023-08-12T19:51:57.763Z,3.80
2023-08-12T19:55:00.957Z,3.53
2023-08-12T19:58:04.020Z,4.00
2023-08-12T20:01:06.110Z,3.50
2023-08-12T20:04:08.251Z,3.95
2023-08-12T20:07:10.326Z,3.53
2023-08-12T20:10:12.441Z,3.90
2023-08-12T20:13:14.483Z,3.67
2023-08-12T20:16:16.711Z,4.43
2023-08-12T20:19:19.213Z,5.38
2023-08-12T20:22:21.229Z,4.90
2023-08-12T20:25:23.329Z,5.35
2023-08-12T20:28:25.350Z,6.13
2023-08-12T20:31:27.470Z,6.33
2023-08-12T20:34:29.488Z,5.85
2023-08-12T20:37:31.792Z,6.43
2023-08-12T20:40:34.830Z,4.50
2023-08-12T20:43:37.294Z,3.20
2023-08-12T20:46:39.694Z,3.90
2023-08-12T20:49:42.508Z,3.25
2023-08-12T20:52:44.645Z,2.95
2023-08-12T20:55:46.955Z,3.05
2023-08-12T20:58:49.024Z,3.10
2023-08-12T21:01:51.142Z,3.33
2023-08-12T21:04:53.160Z,3.30
2023-08-12T21:07:55.194Z,2.85
2023-08-12T21:10:57.465Z,2.95
2023-08-12T21:13:59.668Z,3.03
2023-08-12T21:17:01.717Z,3.33
2023-08-12T21:20:05.254Z,2.53
2023-08-12T21:23:08.575Z,3.10
2023-08-12T21:26:10.607Z,3.13
2023-08-12T21:29:12.900Z,2.33
2023-08-12T21:32:15.146Z,2.65
2023-08-12T21:35:17.418Z,2.80
2023-08-12T21:38:19.435Z,2.97
2023-08-12T21:41:21.455Z,2.78
2023-08-12T21:44:23.440Z,3.00
2023-08-12T21:47:25.467Z,3.07
2023-08-12T21:50:27.532Z,3.13
2023-08-12T21:53:29.555Z,2.75
2023-08-12T21:56:31.627Z,2.85
2023-08-12T21:59:33.684Z,2.93
2023-08-12T22:02:35.802Z,2.83
2023-08-12T22:05:38.008Z,3.13
2023-08-12T22:08:40.213Z,2.80
2023-08-12T22:11:42.156Z,3.08
2023-08-12T22:14:44.162Z,2.73
2023-08-12T22:17:48.917Z,3.08
2023-08-12T22:20:54.347Z,3.10
2023-08-12T22:23:56.455Z,2.80
2023-08-12T22:26:58.453Z,2.80
2023-08-12T22:30:00.470Z,2.77
2023-08-12T22:33:02.481Z,2.83
2023-08-12T22:36:04.680Z,2.80
2023-08-12T22:39:06.766Z,2.45
2023-08-12T22:42:08.899Z,2.85
2023-08-12T22:45:11.020Z,2.50
2023-08-12T22:48:13.151Z,2.78
2023-08-12T22:51:15.270Z,3.28
2023-08-12T22:54:17.461Z,3.20
2023-08-12T22:57:19.573Z,3.00
2023-08-12T23:00:21.718Z,3.10
2023-08-12T23:03:23.903Z,2.80
2023-08-12T23:06:26.008Z,3.00
2023-08-12T23:09:28.202Z,2.78
2023-08-12T23:12:30.292Z,2.85
2023-08-12T23:15:32.643Z,2.50
2023-08-12T23:18:34.793Z,2.72
2023-08-12T23:21:36.819Z,2.50
2023-08-12T23:24:38.883Z,2.50
2023-08-12T23:27:40.807Z,2.50
2023-08-12T23:30:43.356Z,2.80
2023-08-12T23:33:45.575Z,2.53
2023-08-12T23:36:47.649Z,3.00
2023-08-12T23:39:49.748Z,2.20
2023-08-12T23:42:51.755Z,2.75
2023-08-12T23:45:58.852Z,2.83
2023-08-12T23:49:00.943Z,2.55
2023-08-12T23:52:03.021Z,2.80
2023-08-12T23:55:05.554Z,2.95
2023-08-12T23:58:07.681Z,2.83
